Main page
METAR-TAF:

METAR-TAF

Airports :

Ciudad Juárez International Airport

Ciudad Juárez, Mexico

latitude: 31-38N, longitude: 106-26W, elevation: 3841 ft

Current weather observation

The report was made 6 hours and 37 minutes ago, at 03:45 UTC
Calm wind
Temperature 50°F
Humidity 46%
Pressure 30.13 in. Hg
Visibility: 8 miles
Clear sky

METAR: MMCS 190345Z 00000KT 8SM SKC 10/M01 A3013 RMK HZY

Time: 03:22 (10:22 UTC)

Forecast

The report was made 4 hours and 58 minutes ago, at 05:24 UTC
Forecast valid from 19 at 06 UTC to 20 at 06 UTC
Wind 0 mph from the North
Visibility: 6 miles
Clear sky
From 19 at 1800 UTC
Wind 12 mph from the North/Northeast
Visibility: 6 miles
Scattered clouds at a height of 9000 ft
Scattered clouds at a height of 20000 ft
Becoming
from 20 at 03 UTC to 20 at 05 UTC
Wind 5 mph from the East

TAF: MMCS 190524Z 1906/2006 00000KT P6SM SKC FM191800 03010KT P6SM SCT090 SCT200 BECMG 2003/2005 09004KT

Weather observations and forecasts of more than 4000 airports (METAR and TAF reports).

The available stations are represented by yellow and red dots on the map.

Hover mouse over dot to see the name of the station.

Then click to see weather observations and forecasts.

To change the map : click on the green buttons with a black cross to zoom in, on the green button with a dash to zoom out, or on the green arrows for adjacent maps.


METAR-TAF: